Time;durP1;ratioP1;P1;durP2;ratioP2;P2;SDS_P1;SDS_P2;PMS_P1;PMS_P2;Temp;Humidity;BMP_temperature;BMP_pressure;BME280_temperature;BME280_humidity;BME280_pressure;Samples;Min_cycle;Max_cycle;Signal;HPM_P1;HPM_P2
2022/07/14 00:00:40;;;;;;;12.02;3.50;;;14.70;99.90;;;;;;5006912;28;20034;-91
2022/07/14 00:03:07;;;;;;;11.63;2.97;;;14.70;99.90;;;;;;5023515;28;20041;-92
2022/07/14 00:05:35;;;;;;;11.30;3.10;;;14.80;99.90;;;;;;4984729;28;20048;-91
2022/07/14 00:08:02;;;;;;;11.60;2.88;;;14.80;99.90;;;;;;4982694;28;20084;-92
2022/07/14 00:10:28;;;;;;;9.23;2.80;;;14.80;99.90;;;;;;4976639;28;20046;-91
2022/07/14 00:12:54;;;;;;;14.55;2.92;;;14.80;99.90;;;;;;5022441;28;20052;-91
2022/07/14 00:15:21;;;;;;;11.50;3.00;;;14.80;99.90;;;;;;4987487;28;20534;-91
2022/07/14 00:17:47;;;;;;;9.98;2.85;;;14.70;99.90;;;;;;5003853;28;20133;-90
2022/07/14 00:20:14;;;;;;;12.00;3.08;;;14.60;99.90;;;;;;4994617;28;20474;-91
2022/07/14 00:22:40;;;;;;;11.65;2.55;;;14.50;99.90;;;;;;4988553;28;20536;-91
2022/07/14 00:25:07;;;;;;;13.43;3.30;;;14.50;99.90;;;;;;4993559;28;20566;-90
2022/07/14 00:27:36;;;;;;;8.15;2.92;;;14.50;99.90;;;;;;5005526;28;20095;-91
2022/07/14 00:30:04;;;;;;;8.23;2.50;;;14.40;99.90;;;;;;4987851;28;20099;-91
2022/07/14 00:32:32;;;;;;;10.57;2.35;;;14.40;99.90;;;;;;4988036;28;20409;-91
2022/07/14 00:34:58;;;;;;;13.80;2.75;;;14.30;99.90;;;;;;5004003;28;20052;-91
2022/07/14 00:37:24;;;;;;;12.45;3.03;;;14.20;99.90;;;;;;4971352;28;20077;-91
2022/07/14 00:39:56;;;;;;;10.82;2.83;;;14.00;99.90;;;;;;5014544;28;20049;-91
2022/07/14 00:42:34;;;;;;;9.00;3.67;;;14.00;99.90;;;;;;4972664;28;20046;-92
2022/07/14 00:45:10;;;;;;;12.75;4.00;;;13.90;99.90;;;;;;5020049;28;20096;-91
2022/07/14 00:47:36;;;;;;;14.25;3.92;;;13.90;99.90;;;;;;4981149;28;20136;-92
2022/07/14 00:50:03;;;;;;;9.35;3.28;;;13.80;99.90;;;;;;4986762;28;20054;-92
2022/07/14 00:52:30;;;;;;;10.73;3.17;;;13.80;99.90;;;;;;5007146;28;20046;-91
2022/07/14 00:54:56;;;;;;;11.10;3.20;;;13.70;99.90;;;;;;5026722;28;20142;-92
2022/07/14 00:57:23;;;;;;;13.32;3.90;;;13.60;99.90;;;;;;4949828;28;20041;-92
2022/07/14 00:59:50;;;;;;;11.60;3.47;;;13.60;99.90;;;;;;5004949;28;20049;-93
2022/07/14 01:02:23;;;;;;;8.80;3.40;;;13.40;99.90;;;;;;5020135;28;20704;-91
2022/07/14 01:04:50;;;;;;;10.93;3.40;;;13.40;99.90;;;;;;5021089;28;20054;-92
2022/07/14 01:07:18;;;;;;;10.05;3.20;;;13.30;99.90;;;;;;5005344;28;20050;-92
2022/07/14 01:09:46;;;;;;;10.93;3.63;;;13.20;99.90;;;;;;5036389;28;20050;-92
2022/07/14 01:12:13;;;;;;;13.35;3.47;;;13.30;99.90;;;;;;4987189;28;20042;-92
2022/07/14 01:14:41;;;;;;;12.50;3.92;;;13.30;99.90;;;;;;4988462;28;20068;-92
2022/07/14 01:17:09;;;;;;;11.05;3.90;;;13.20;99.90;;;;;;4973660;28;20037;-91
2022/07/14 01:19:35;;;;;;;12.65;4.68;;;13.10;99.90;;;;;;4971427;28;20125;-91
2022/07/14 01:22:02;;;;;;;12.52;3.33;;;13.10;99.90;;;;;;4991785;28;20641;-90
2022/07/14 01:24:32;;;;;;;9.20;3.42;;;13.10;99.90;;;;;;4972006;28;20054;-91
2022/07/14 01:26:59;;;;;;;9.25;3.67;;;13.00;99.90;;;;;;5007245;28;20042;-92
2022/07/14 01:29:26;;;;;;;12.70;3.83;;;12.90;99.90;;;;;;4974905;28;20046;-93
2022/07/14 01:31:52;;;;;;;12.32;3.85;;;12.90;99.90;;;;;;4989181;28;20053;-91
2022/07/14 01:34:18;;;;;;;10.98;4.43;;;12.90;99.90;;;;;;5040195;28;20077;-90
2022/07/14 01:36:45;;;;;;;12.65;5.15;;;12.90;99.90;;;;;;4988379;28;20045;-91
2022/07/14 01:39:12;;;;;;;9.85;4.50;;;12.80;99.90;;;;;;4972494;28;20061;-91
2022/07/14 01:41:38;;;;;;;12.65;4.40;;;12.80;99.90;;;;;;5005325;28;20573;-90
2022/07/14 01:44:05;;;;;;;15.63;4.82;;;12.70;99.90;;;;;;4985673;28;20050;-90
2022/07/14 01:46:31;;;;;;;11.65;3.83;;;12.70;99.90;;;;;;5005834;28;20050;-91
2022/07/14 01:48:57;;;;;;;9.02;3.83;;;12.70;99.90;;;;;;4978104;28;20129;-91
2022/07/14 01:51:26;;;;;;;10.65;3.85;;;12.80;99.90;;;;;;5026474;28;20052;-91
2022/07/14 01:53:52;;;;;;;13.98;4.60;;;12.70;99.90;;;;;;4969153;28;20050;-91
2022/07/14 01:56:22;;;;;;;11.40;4.30;;;12.70;99.90;;;;;;5008256;28;20042;-91
2022/07/14 01:58:50;;;;;;;7.95;4.28;;;12.70;99.90;;;;;;4992918;28;20042;-91
2022/07/14 02:04:02;;;;;;;8.85;4.10;;;12.50;99.90;;;;;;5024415;28;20068;-91
2022/07/14 02:06:29;;;;;;;9.80;4.63;;;12.50;99.90;;;;;;5008590;28;20049;-91
2022/07/14 02:08:59;;;;;;;10.38;4.10;;;12.50;99.90;;;;;;5013029;28;20045;-90
2022/07/14 02:14:11;;;;;;;8.63;3.72;;;12.30;99.90;;;;;;4991409;28;20068;-91
2022/07/14 02:16:38;;;;;;;9.30;4.38;;;12.40;99.90;;;;;;4972692;28;20104;-91
2022/07/14 02:19:04;;;;;;;11.25;4.25;;;12.40;99.90;;;;;;5006390;28;20053;-92
2022/07/14 02:21:31;;;;;;;12.20;4.35;;;12.40;99.90;;;;;;5039982;28;20050;-92
2022/07/14 02:23:57;;;;;;;16.38;4.78;;;12.30;99.90;;;;;;5011461;28;20064;-91
2022/07/14 02:26:24;;;;;;;8.93;4.60;;;12.30;99.90;;;;;;4992388;28;20046;-90
2022/07/14 02:28:50;;;;;;;11.55;4.50;;;12.30;99.90;;;;;;5006433;28;20046;-91
2022/07/14 02:31:17;;;;;;;13.07;4.90;;;12.30;99.90;;;;;;4976274;28;20046;-90
2022/07/14 02:33:43;;;;;;;11.82;5.00;;;12.30;99.90;;;;;;4976665;28;20541;-91
2022/07/14 02:36:10;;;;;;;10.15;4.60;;;12.30;99.90;;;;;;5007212;28;20034;-91
2022/07/14 02:38:36;;;;;;;9.77;4.97;;;12.20;99.90;;;;;;5030447;28;20489;-91
2022/07/14 02:41:07;;;;;;;9.98;4.85;;;12.20;99.90;;;;;;4990713;28;20046;-91
2022/07/14 02:43:35;;;;;;;12.70;4.78;;;12.20;99.90;;;;;;4991819;28;20548;-91
2022/07/14 02:46:02;;;;;;;9.38;4.70;;;12.20;99.90;;;;;;4960441;28;20042;-92
2022/07/14 02:48:30;;;;;;;12.43;4.53;;;12.20;99.90;;;;;;5013147;28;20149;-92
2022/07/14 02:51:04;;;;;;;9.95;4.40;;;12.10;99.90;;;;;;4995053;28;20065;-91
2022/07/14 02:53:34;;;;;;;12.93;5.18;;;12.10;99.90;;;;;;5004351;28;20026;-92
2022/07/14 02:56:03;;;;;;;13.27;4.93;;;12.10;99.90;;;;;;5011616;28;20076;-92
2022/07/14 02:58:34;;;;;;;9.15;5.05;;;12.10;99.90;;;;;;5012146;28;20091;-91
2022/07/14 03:01:08;;;;;;;8.32;4.18;;;12.00;99.90;;;;;;5013083;28;20061;-91
2022/07/14 03:03:36;;;;;;;8.30;3.75;;;12.00;99.90;;;;;;4996575;28;20586;-91
2022/07/14 03:06:15;;;;;;;10.95;5.10;;;12.00;99.90;;;;;;4998587;28;20100;-91
2022/07/14 03:08:45;;;;;;;10.40;5.28;;;12.00;99.90;;;;;;4979304;28;20077;-91
2022/07/14 03:11:14;;;;;;;9.88;5.15;;;12.00;99.90;;;;;;4997236;28;20050;-92
2022/07/14 03:13:41;;;;;;;8.25;4.25;;;11.90;99.90;;;;;;5009633;28;20057;-92
2022/07/14 03:16:12;;;;;;;8.30;4.40;;;11.90;99.90;;;;;;4991702;28;20052;-91
2022/07/14 03:18:41;;;;;;;8.65;4.30;;;11.80;99.90;;;;;;4990245;28;20053;-92
2022/07/14 03:21:11;;;;;;;9.68;5.00;;;11.70;99.90;;;;;;4978306;28;20093;-91
2022/07/14 03:23:41;;;;;;;10.50;4.90;;;11.60;99.90;;;;;;5002844;28;20049;-91
2022/07/14 03:26:12;;;;;;;7.13;4.30;;;11.60;99.90;;;;;;4981703;28;20041;-91
2022/07/14 03:28:42;;;;;;;10.25;5.57;;;11.60;99.90;;;;;;5009849;28;20369;-91
2022/07/14 03:31:10;;;;;;;7.90;5.35;;;11.50;99.90;;;;;;4957148;28;20041;-92
2022/07/14 03:33:36;;;;;;;7.80;4.38;;;11.50;99.90;;;;;;4992833;28;20046;-91
2022/07/14 03:36:02;;;;;;;5.53;3.78;;;11.50;99.90;;;;;;4988294;28;20850;-92
2022/07/14 03:38:30;;;;;;;6.47;3.50;;;11.40;99.90;;;;;;5002554;28;20068;-92
2022/07/14 03:40:59;;;;;;;7.00;3.70;;;11.40;99.90;;;;;;4974824;28;20493;-91
2022/07/14 03:43:25;;;;;;;7.28;3.45;;;11.40;99.90;;;;;;4968023;28;20041;-93
2022/07/14 03:45:53;;;;;;;7.88;3.75;;;11.40;99.90;;;;;;5024584;28;20038;-90
2022/07/14 03:48:21;;;;;;;9.85;3.75;;;11.40;99.90;;;;;;4980806;28;20046;-92
2022/07/14 03:50:52;;;;;;;6.63;4.03;;;11.40;99.90;;;;;;5006195;28;20124;-91
2022/07/14 03:53:20;;;;;;;6.93;3.53;;;11.40;99.90;;;;;;4974824;28;20049;-91
2022/07/14 03:55:49;;;;;;;5.97;2.95;;;11.40;99.90;;;;;;4984247;28;20041;-93
2022/07/14 03:58:15;;;;;;;7.20;3.78;;;11.40;99.90;;;;;;5002394;28;20138;-92
2022/07/14 04:00:43;;;;;;;7.95;3.45;;;11.50;99.90;;;;;;5008623;28;20038;-91
2022/07/14 04:03:11;;;;;;;5.93;3.60;;;11.50;99.90;;;;;;4996661;28;20046;-91
2022/07/14 04:05:38;;;;;;;8.45;4.30;;;11.50;99.90;;;;;;4978474;28;20137;-90
2022/07/14 04:08:08;;;;;;;7.78;4.18;;;11.50;99.90;;;;;;4973657;28;20050;-92
2022/07/14 04:10:54;;;;;;;8.05;4.28;;;11.50;99.90;;;;;;5006802;28;20046;-92
2022/07/14 04:13:20;;;;;;;7.05;4.05;;;11.60;99.90;;;;;;5030927;28;20461;-92
2022/07/14 04:15:47;;;;;;;8.60;4.22;;;11.60;99.90;;;;;;4994458;28;20059;-91
2022/07/14 04:18:14;;;;;;;10.90;4.55;;;11.70;99.90;;;;;;5028720;28;20052;-92
2022/07/14 04:20:47;;;;;;;8.52;4.43;;;11.70;99.90;;;;;;4994021;28;20051;-92
2022/07/14 04:23:14;;;;;;;7.43;3.97;;;11.70;99.90;;;;;;5039611;28;20034;-91
2022/07/14 04:25:40;;;;;;;6.88;4.13;;;11.70;99.90;;;;;;5029854;28;20040;-91
2022/07/14 04:28:07;;;;;;;6.88;3.90;;;11.70;99.90;;;;;;4990372;28;20026;-90
2022/07/14 04:30:33;;;;;;;10.13;4.45;;;11.80;99.90;;;;;;5014775;28;20061;-91
2022/07/14 04:32:59;;;;;;;9.40;4.25;;;11.80;99.90;;;;;;4999632;28;20050;-91
2022/07/14 04:35:25;;;;;;;6.25;4.30;;;11.80;99.90;;;;;;4992744;28;20153;-91
2022/07/14 04:37:52;;;;;;;5.88;3.70;;;11.80;99.90;;;;;;4976982;28;20049;-91
2022/07/14 04:40:27;;;;;;;5.68;3.60;;;11.80;99.90;;;;;;5003332;28;20050;-91
2022/07/14 04:42:54;;;;;;;7.30;3.58;;;11.80;99.90;;;;;;4989990;28;20108;-91
2022/07/14 04:45:22;;;;;;;7.65;4.45;;;11.90;99.90;;;;;;4972845;28;20053;-91
2022/07/14 04:47:49;;;;;;;6.68;3.88;;;12.00;99.90;;;;;;4991807;28;20085;-92
2022/07/14 04:53:01;;;;;;;9.05;4.60;;;12.20;99.90;;;;;;4976006;28;20045;-90
2022/07/14 04:55:44;;;;;;;11.35;5.47;;;12.30;99.90;;;;;;5001706;28;20041;-89
2022/07/14 04:58:18;;;;;;;14.55;5.75;;;12.30;99.90;;;;;;4996340;28;20510;-91
2022/07/14 05:00:45;;;;;;;9.07;4.75;;;12.50;99.90;;;;;;4987636;28;20069;-90
2022/07/14 05:03:11;;;;;;;9.52;5.05;;;12.60;99.90;;;;;;4968431;28;20433;-91
2022/07/14 05:05:40;;;;;;;10.30;5.43;;;12.70;99.90;;;;;;4988018;28;20037;-90
2022/07/14 05:08:06;;;;;;;11.82;5.07;;;12.90;99.90;;;;;;4999465;28;20038;-91
2022/07/14 05:10:41;;;;;;;10.10;5.15;;;12.90;99.90;;;;;;4972629;28;20100;-92
2022/07/14 05:13:08;;;;;;;12.05;5.28;;;13.20;99.90;;;;;;4956754;28;20038;-91
2022/07/14 05:15:34;;;;;;;13.00;4.93;;;13.60;99.90;;;;;;5019621;28;20042;-92
2022/07/14 05:18:03;;;;;;;10.02;3.70;;;14.10;99.90;;;;;;4955023;28;20041;-92
2022/07/14 05:20:29;;;;;;;10.48;3.75;;;14.60;99.90;;;;;;5019822;28;20061;-91
2022/07/14 05:22:55;;;;;;;9.10;3.88;;;14.90;99.90;;;;;;4990867;28;20625;-92
2022/07/14 05:25:22;;;;;;;9.85;3.95;;;15.20;99.90;;;;;;4972899;28;20060;-94
2022/07/14 05:27:48;;;;;;;6.50;3.53;;;15.30;99.90;;;;;;5006779;28;20091;-93
2022/07/14 05:30:25;;;;;;;9.32;3.10;;;15.50;99.90;;;;;;4990807;28;20060;-92
2022/07/14 05:32:53;;;;;;;12.27;3.55;;;15.70;99.90;;;;;;4987580;28;20090;-92
2022/07/14 05:35:20;;;;;;;8.13;2.67;;;15.90;99.90;;;;;;4990220;28;20441;-92
2022/07/14 05:37:48;;;;;;;8.07;3.00;;;15.90;99.90;;;;;;4992188;28;20490;-93
2022/07/14 05:40:15;;;;;;;9.38;3.47;;;15.70;99.90;;;;;;4985958;28;20498;-92
2022/07/14 05:42:42;;;;;;;10.35;2.85;;;15.60;99.90;;;;;;4971413;28;20054;-93
2022/07/14 05:45:09;;;;;;;12.18;3.45;;;15.60;99.90;;;;;;5025705;28;20124;-93
2022/07/14 05:47:38;;;;;;;5.93;2.70;;;15.80;99.90;;;;;;4975212;28;20733;-92
2022/07/14 05:50:10;;;;;;;8.07;3.10;;;16.20;99.90;;;;;;5004402;28;20701;-93
2022/07/14 05:52:46;;;;;;;11.15;2.55;;;16.60;99.90;;;;;;5004076;28;20046;-92
2022/07/14 05:55:13;;;;;;;21.80;15.82;;;17.00;99.90;;;;;;4999742;28;20035;-91
2022/07/14 05:57:40;;;;;;;17.92;13.05;;;17.40;99.90;;;;;;4991179;28;20450;-92
2022/07/14 06:00:07;;;;;;;10.60;7.00;;;17.70;99.90;;;;;;5023022;28;20045;-93
2022/07/14 06:02:45;;;;;;;8.25;3.63;;;18.00;99.90;;;;;;4993906;28;20041;-93
2022/07/14 06:05:17;;;;;;;8.80;2.20;;;18.30;99.90;;;;;;4993439;28;20044;-93
2022/07/14 06:07:46;;;;;;;8.27;2.45;;;18.60;99.90;;;;;;5023426;28;20049;-93
2022/07/14 06:10:14;;;;;;;9.38;2.22;;;18.80;99.90;;;;;;4984444;28;20560;-92
2022/07/14 06:12:46;;;;;;;7.85;2.50;;;18.80;99.90;;;;;;4999673;28;20108;-93
2022/07/14 06:15:14;;;;;;;6.22;1.92;;;19.00;99.90;;;;;;5003697;28;20037;-93
2022/07/14 06:17:40;;;;;;;8.73;3.55;;;19.10;99.90;;;;;;4972558;28;20045;-93
2022/07/14 06:20:07;;;;;;;7.57;2.10;;;19.30;99.90;;;;;;5037345;28;20136;-93
2022/07/14 06:22:38;;;;;;;32.83;28.27;;;19.50;99.90;;;;;;4962177;28;20041;-93
2022/07/14 06:25:06;;;;;;;7.70;2.85;;;19.50;99.90;;;;;;4971422;28;20049;-93
2022/07/14 06:27:33;;;;;;;8.88;2.25;;;19.60;99.90;;;;;;4990528;28;20065;-93
2022/07/14 06:30:05;;;;;;;6.38;2.10;;;19.40;99.90;;;;;;4982274;28;20513;-93
2022/07/14 06:32:33;;;;;;;8.13;1.63;;;19.40;99.90;;;;;;5005952;28;20125;-90
2022/07/14 06:35:00;;;;;;;8.60;1.73;;;19.20;99.90;;;;;;4991155;28;20042;-91
2022/07/14 06:37:26;;;;;;;11.27;4.15;;;19.30;99.90;;;;;;4988234;28;20180;-90
2022/07/14 06:39:52;;;;;;;4.65;1.88;;;19.60;99.90;;;;;;4955338;28;20151;-90
2022/07/14 06:42:20;;;;;;;7.93;2.00;;;19.90;99.90;;;;;;5028788;28;20053;-93
2022/07/14 06:44:59;;;;;;;9.18;3.85;;;20.10;99.90;;;;;;4996344;28;20848;-93
2022/07/14 06:47:30;;;;;;;6.07;2.35;;;20.10;99.90;;;;;;4995049;28;20054;-92
2022/07/14 06:49:59;;;;;;;6.22;1.70;;;20.00;99.90;;;;;;4977786;28;20116;-92
2022/07/14 06:52:28;;;;;;;8.80;1.17;;;20.30;99.90;;;;;;4996316;28;20397;-92
2022/07/14 06:54:57;;;;;;;6.05;1.30;;;20.20;99.90;;;;;;4975543;28;20045;-92
2022/07/14 06:57:23;;;;;;;5.90;1.33;;;20.40;99.90;;;;;;5012433;28;20101;-92
2022/07/14 06:59:49;;;;;;;5.72;1.40;;;20.10;99.90;;;;;;5013150;28;20041;-93
2022/07/14 07:02:15;;;;;;;33.78;28.17;;;20.20;99.90;;;;;;5012162;28;20042;-90
2022/07/14 07:04:43;;;;;;;6.68;2.03;;;20.40;99.90;;;;;;5027632;28;20081;-92
2022/07/14 07:07:09;;;;;;;7.68;1.67;;;20.50;99.90;;;;;;4983546;28;20450;-90
2022/07/14 07:09:36;;;;;;;9.15;1.50;;;20.90;99.90;;;;;;4986877;28;21055;-91
2022/07/14 07:12:02;;;;;;;6.88;1.25;;;20.70;99.90;;;;;;5012458;28;20136;-91
2022/07/14 07:14:28;;;;;;;4.22;1.20;;;20.40;99.90;;;;;;5004009;28;20052;-91
2022/07/14 07:16:55;;;;;;;7.05;1.50;;;20.00;99.90;;;;;;5032351;28;20033;-92
2022/07/14 07:19:21;;;;;;;9.38;4.85;;;19.70;99.90;;;;;;4995330;28;20078;-91
2022/07/14 07:21:47;;;;;;;11.85;6.07;;;19.50;99.90;;;;;;5001995;28;20046;-92
2022/07/14 07:24:14;;;;;;;7.40;2.58;;;19.60;99.90;;;;;;4997368;28;20140;-90
2022/07/14 07:26:41;;;;;;;7.30;2.05;;;19.70;99.90;;;;;;4980201;28;20080;-91
2022/07/14 07:29:08;;;;;;;6.40;1.92;;;19.80;99.90;;;;;;4985268;28;20049;-92
2022/07/14 07:31:35;;;;;;;5.15;1.35;;;19.80;99.90;;;;;;5013651;28;20113;-92
2022/07/14 07:34:02;;;;;;;7.55;1.63;;;20.00;99.90;;;;;;4978585;28;20052;-93
2022/07/14 07:36:28;;;;;;;20.10;16.58;;;20.30;99.90;;;;;;5013879;28;20160;-92
2022/07/14 07:38:55;;;;;;;5.05;1.52;;;20.40;99.90;;;;;;4983069;28;20053;-92
2022/07/14 07:41:21;;;;;;;7.35;4.40;;;20.40;99.90;;;;;;4976320;28;20046;-92
2022/07/14 07:43:47;;;;;;;6.35;2.30;;;20.90;99.90;;;;;;4977880;28;20057;-93
2022/07/14 07:46:14;;;;;;;7.07;2.25;;;21.30;99.90;;;;;;4956593;28;20065;-91
2022/07/14 07:48:40;;;;;;;8.70;1.05;;;21.60;99.90;;;;;;5007555;28;20045;-92
2022/07/14 07:51:08;;;;;;;3.05;0.80;;;21.70;99.90;;;;;;4992994;28;20187;-91
2022/07/14 07:53:35;;;;;;;7.80;2.08;;;21.80;99.90;;;;;;4957000;28;20050;-92
2022/07/14 07:56:02;;;;;;;10.23;2.75;;;21.90;99.90;;;;;;5005822;28;20053;-92
2022/07/14 07:58:29;;;;;;;5.25;2.17;;;22.00;99.90;;;;;;4990022;28;20045;-91
2022/07/14 08:00:55;;;;;;;4.88;1.00;;;22.50;99.90;;;;;;4973304;28;20044;-92
2022/07/14 08:03:21;;;;;;;2.78;0.93;;;23.00;99.90;;;;;;4944624;28;20058;-90
2022/07/14 08:05:47;;;;;;;5.70;1.92;;;23.30;99.90;;;;;;5014761;28;20506;-91
2022/07/14 08:08:14;;;;;;;5.25;1.50;;;23.60;99.90;;;;;;4986248;28;20520;-92
2022/07/14 08:10:42;;;;;;;7.50;1.55;;;23.80;99.90;;;;;;4959997;28;20049;-93
2022/07/14 08:13:09;;;;;;;6.07;1.83;;;24.00;99.90;;;;;;5002255;28;20041;-92
2022/07/14 08:15:37;;;;;;;3.65;0.82;;;23.70;99.90;;;;;;4971103;28;20053;-91
2022/07/14 08:18:04;;;;;;;5.28;1.20;;;23.90;99.80;;;;;;5037395;28;20129;-93
2022/07/14 08:20:30;;;;;;;6.22;1.52;;;24.20;99.90;;;;;;4992826;28;20050;-92
2022/07/14 08:22:57;;;;;;;3.70;0.73;;;24.00;99.90;;;;;;4955194;28;20471;-92
2022/07/14 08:25:23;;;;;;;4.72;0.82;;;23.90;99.70;;;;;;4971425;28;20310;-91
2022/07/14 08:27:49;;;;;;;6.53;1.17;;;23.10;99.40;;;;;;5006408;28;20506;-92
2022/07/14 08:30:16;;;;;;;6.75;1.20;;;22.40;99.90;;;;;;5000139;28;20045;-92
2022/07/14 08:32:50;;;;;;;4.28;1.30;;;21.90;99.90;;;;;;4968046;28;20045;-92
2022/07/14 08:35:19;;;;;;;5.35;1.02;;;22.10;99.90;;;;;;5007069;28;20033;-92
2022/07/14 08:37:46;;;;;;;4.07;0.70;;;22.70;99.90;;;;;;5004289;28;20069;-92
2022/07/14 08:40:15;;;;;;;4.57;0.80;;;23.30;99.90;;;;;;4971995;28;20640;-92
2022/07/14 08:42:44;;;;;;;4.70;0.95;;;23.60;99.10;;;;;;4987924;28;20582;-92
2022/07/14 08:45:13;;;;;;;6.10;1.02;;;23.50;97.10;;;;;;4955516;28;20513;-92
2022/07/14 08:47:41;;;;;;;6.57;1.05;;;23.60;97.30;;;;;;4986678;28;20502;-91
2022/07/14 08:50:10;;;;;;;4.78;0.75;;;23.50;96.60;;;;;;5017905;28;20050;-92
2022/07/14 08:52:37;;;;;;;1.58;0.47;;;23.40;96.00;;;;;;4993819;28;20058;-90
2022/07/14 08:55:06;;;;;;;2.50;0.60;;;23.50;94.90;;;;;;5001885;28;20041;-92
2022/07/14 08:57:32;;;;;;;13.18;11.65;;;23.60;93.80;;;;;;5012850;28;20057;-91
2022/07/14 08:59:59;;;;;;;26.80;24.13;;;23.90;94.10;;;;;;4979354;28;20057;-91
2022/07/14 09:02:25;;;;;;;59.53;53.65;;;24.20;92.80;;;;;;4974053;28;20054;-92
2022/07/14 09:04:51;;;;;;;5.38;1.77;;;24.40;92.30;;;;;;4984518;28;20049;-94
2022/07/14 09:07:32;;;;;;;4.20;0.80;;;24.60;92.20;;;;;;5002284;28;20116;-91
2022/07/14 09:10:05;;;;;;;5.15;1.98;;;24.80;90.90;;;;;;5021325;28;20479;-91
2022/07/14 09:12:33;;;;;;;4.25;1.13;;;24.80;89.00;;;;;;4988345;28;20052;-93
2022/07/14 09:17:55;;;;;;;15.20;13.45;;;24.00;92.80;;;;;;5002673;28;20076;-91
2022/07/14 09:20:24;;;;;;;2.90;1.05;;;23.90;93.50;;;;;;4972419;28;20128;-92
2022/07/14 09:22:56;;;;;;;4.55;3.28;;;23.70;93.60;;;;;;4971111;28;20851;-92
2022/07/14 09:25:24;;;;;;;1.88;0.85;;;23.50;88.60;;;;;;5025300;28;20050;-92
2022/07/14 09:27:50;;;;;;;3.55;0.68;;;23.30;85.70;;;;;;5019443;28;20042;-92
2022/07/14 09:30:17;;;;;;;5.53;2.53;;;23.50;87.30;;;;;;5006746;28;20045;-92
2022/07/14 09:32:48;;;;;;;3.13;1.15;;;23.70;85.00;;;;;;4982846;28;20505;-91
2022/07/14 09:35:17;;;;;;;4.50;0.82;;;23.70;85.90;;;;;;4968544;28;20039;-91
2022/07/14 09:37:44;;;;;;;2.70;0.63;;;23.90;85.80;;;;;;4999412;28;20038;-91
2022/07/14 09:40:15;;;;;;;3.60;0.60;;;23.80;86.00;;;;;;5004326;28;20041;-92
2022/07/14 09:42:57;;;;;;;6.03;1.60;;;23.50;90.40;;;;;;5002290;28;20414;-93
2022/07/14 09:45:36;;;;;;;3.17;1.13;;;23.50;92.30;;;;;;4979651;28;20092;-92
2022/07/14 09:48:04;;;;;;;3.22;0.80;;;23.70;93.80;;;;;;5004631;28;20137;-91
2022/07/14 09:50:42;;;;;;;10.50;8.73;;;23.40;91.90;;;;;;5020551;28;20077;-91
2022/07/14 09:53:18;;;;;;;9.60;7.05;;;23.50;90.70;;;;;;5023191;28;20042;-93
2022/07/14 09:56:01;;;;;;;3.60;1.50;;;23.40;88.50;;;;;;5004930;28;20058;-91
2022/07/14 09:58:31;;;;;;;4.47;0.68;;;23.60;91.80;;;;;;4991226;28;20041;-93
2022/07/14 10:01:06;;;;;;;1.90;0.50;;;23.70;89.20;;;;;;4988689;28;20516;-92
2022/07/14 10:03:34;;;;;;;3.28;1.25;;;23.70;88.20;;;;;;5036698;28;20050;-92
2022/07/14 10:06:03;;;;;;;3.92;0.57;;;23.40;89.20;;;;;;5022035;28;20134;-92
2022/07/14 10:08:33;;;;;;;4.28;1.45;;;23.40;89.40;;;;;;4992555;28;20438;-92
2022/07/14 10:11:03;;;;;;;4.03;0.60;;;23.70;91.00;;;;;;4992194;28;20057;-92
2022/07/14 10:13:31;;;;;;;2.58;0.60;;;23.40;91.00;;;;;;4990886;28;20515;-92
2022/07/14 10:15:58;;;;;;;2.03;0.60;;;23.70;91.10;;;;;;4994299;28;20133;-91
2022/07/14 10:18:26;;;;;;;4.32;0.90;;;23.30;91.50;;;;;;5005210;28;20041;-93
2022/07/14 10:20:55;;;;;;;3.15;0.80;;;23.20;92.10;;;;;;5023483;28;20513;-93
2022/07/14 10:23:23;;;;;;;6.28;1.05;;;23.20;92.40;;;;;;5006475;28;20049;-93
2022/07/14 10:25:53;;;;;;;5.40;1.88;;;23.10;92.90;;;;;;4990375;28;20046;-92
2022/07/14 10:28:20;;;;;;;4.72;1.42;;;23.40;93.30;;;;;;4985809;28;20494;-92
2022/07/14 10:31:05;;;;;;;2.97;0.98;;;23.20;93.00;;;;;;5010075;28;20046;-93
2022/07/14 10:34:08;;;;;;;8.57;5.82;;;23.40;92.50;;;;;;5025640;28;20107;-94
2022/07/14 10:37:03;;;;;;;4.22;1.73;;;23.20;92.40;;;;;;4997447;28;20045;-93
2022/07/14 10:40:05;;;;;;;6.97;4.22;;;23.40;92.40;;;;;;4972270;28;20050;-94
2022/07/14 10:42:37;;;;;;;4.28;1.08;;;23.50;93.80;;;;;;4987388;28;20058;-93
2022/07/14 10:45:05;;;;;;;2.63;0.70;;;23.70;92.30;;;;;;4996150;28;20565;-92
2022/07/14 10:47:57;;;;;;;7.95;4.43;;;23.90;91.90;;;;;;4971552;28;20525;-93
2022/07/14 10:50:30;;;;;;;1.73;0.82;;;23.80;92.70;;;;;;4973962;28;20057;-92
2022/07/14 10:53:04;;;;;;;4.70;1.30;;;23.90;92.40;;;;;;4989263;28;20184;-92
2022/07/14 10:55:30;;;;;;;3.45;0.80;;;23.80;91.80;;;;;;5009623;28;21141;-92
2022/07/14 10:58:00;;;;;;;3.25;0.70;;;24.00;91.80;;;;;;4993559;28;20069;-93
2022/07/14 11:00:42;;;;;;;1.88;0.47;;;24.10;92.70;;;;;;4959338;28;20225;-93
2022/07/14 11:03:24;;;;;;;3.35;0.73;;;23.80;91.30;;;;;;5039801;28;20533;-93
2022/07/14 11:06:07;;;;;;;2.03;0.60;;;23.70;90.00;;;;;;5005938;28;20042;-94
2022/07/14 11:08:39;;;;;;;3.80;0.60;;;23.80;91.60;;;;;;5000395;28;20052;-93
2022/07/14 11:11:23;;;;;;;3.38;0.88;;;23.50;91.80;;;;;;5007927;28;20564;-93
2022/07/14 11:14:01;;;;;;;4.93;0.73;;;23.40;91.70;;;;;;5001592;28;20050;-93
2022/07/14 11:16:52;;;;;;;3.60;0.88;;;23.20;92.90;;;;;;4991944;28;20072;-94
2022/07/14 11:19:35;;;;;;;3.87;0.70;;;23.30;93.10;;;;;;4990629;28;20125;-93
2022/07/14 11:22:19;;;;;;;6.22;1.30;;;23.30;94.10;;;;;;4984030;28;20488;-93
2022/07/14 11:24:54;;;;;;;4.38;0.77;;;23.40;94.30;;;;;;5002693;28;20101;-92
2022/07/14 11:27:33;;;;;;;2.63;0.90;;;23.00;93.60;;;;;;4977518;28;20057;-94
2022/07/14 11:30:22;;;;;;;3.95;0.60;;;23.00;94.00;;;;;;5018992;28;20288;-93
2022/07/14 11:33:07;;;;;;;5.45;0.93;;;23.20;94.40;;;;;;4989845;28;20057;-93
2022/07/14 11:38:38;;;;;;;47.28;6.35;;;23.30;94.90;;;;;;5020609;28;20077;-93
2022/07/14 11:41:14;;;;;;;4.75;0.65;;;23.20;94.80;;;;;;4956984;28;20144;-93
2022/07/14 11:43:53;;;;;;;2.03;0.60;;;23.30;94.60;;;;;;4990857;28;20052;-93
2022/07/14 11:46:21;;;;;;;3.22;0.50;;;23.10;94.60;;;;;;4974061;28;20383;-93
2022/07/14 11:48:53;;;;;;;2.90;0.55;;;23.10;94.70;;;;;;4956447;28;20514;-93
2022/07/14 11:51:26;;;;;;;3.20;0.60;;;23.40;95.10;;;;;;4971516;28;20380;-93
2022/07/14 11:53:58;;;;;;;3.80;0.77;;;23.20;95.00;;;;;;4973183;28;20053;-93
2022/07/14 11:56:26;;;;;;;3.58;0.63;;;23.30;94.40;;;;;;4989325;28;20511;-92
2022/07/14 11:59:03;;;;;;;9.40;1.48;;;23.20;94.30;;;;;;5022428;28;20045;-93
2022/07/14 12:01:35;;;;;;;6.85;1.23;;;23.40;94.50;;;;;;5005179;28;20045;-91
2022/07/14 12:04:04;;;;;;;;;;;23.30;94.00;;;;;;5011119;28;20491;-92
2022/07/14 12:06:31;;;;;;;2.28;0.77;;;23.30;93.10;;;;;;4981459;28;19921;-93
2022/07/14 12:09:06;;;;;;;3.88;1.00;;;23.20;92.70;;;;;;4998142;28;20065;-92
2022/07/14 12:11:33;;;;;;;5.28;0.80;;;23.80;92.50;;;;;;4987691;28;20134;-93
2022/07/14 12:13:59;;;;;;;4.15;2.13;;;24.40;92.30;;;;;;4971365;28;20152;-93
2022/07/14 12:16:26;;;;;;;7.10;3.15;;;25.50;92.00;;;;;;5004874;28;20061;-92
2022/07/14 12:18:56;;;;;;;20.13;17.30;;;25.30;89.90;;;;;;4951879;28;20510;-93
2022/07/14 12:21:36;;;;;;;3.55;1.00;;;25.30;84.60;;;;;;5003812;28;20323;-93
2022/07/14 12:24:05;;;;;;;4.75;2.58;;;25.40;84.60;;;;;;4985189;28;20054;-93
2022/07/14 12:26:32;;;;;;;2.83;2.03;;;25.90;82.00;;;;;;5026595;28;20166;-93
2022/07/14 12:29:01;;;;;;;25.67;4.60;;;25.80;80.20;;;;;;4989577;28;20473;-94
2022/07/14 12:31:28;;;;;;;6.00;3.03;;;25.50;74.10;;;;;;4988991;28;20046;-93
2022/07/14 12:34:00;;;;;;;6.55;3.53;;;25.30;75.30;;;;;;4966529;28;20097;-93
2022/07/14 12:36:30;;;;;;;6.60;1.33;;;25.00;75.00;;;;;;4969608;28;20153;-93
2022/07/14 12:38:59;;;;;;;6.47;1.63;;;24.70;75.80;;;;;;4990729;28;20049;-94
2022/07/14 12:41:26;;;;;;;5.65;2.85;;;24.60;76.70;;;;;;4986285;28;20060;-93
2022/07/14 12:43:54;;;;;;;10.00;6.93;;;24.80;79.30;;;;;;5020060;28;20100;-93
2022/07/14 12:46:25;;;;;;;4.43;2.00;;;24.60;81.00;;;;;;4988044;28;20037;-93
2022/07/14 12:48:54;;;;;;;;;;;24.10;83.30;;;;;;4970822;28;20045;-93
2022/07/14 12:51:23;;;;;;;28.92;3.88;;;23.70;90.90;;;;;;5005004;28;19925;-93
2022/07/14 12:54:07;;;;;;;8.70;3.97;;;23.50;90.80;;;;;;5003792;28;20061;-93
2022/07/14 12:56:53;;;;;;;3.50;0.70;;;23.40;90.60;;;;;;4986522;28;20078;-93
2022/07/14 12:59:20;;;;;;;4.75;2.88;;;23.30;90.30;;;;;;4972226;28;20045;-93
2022/07/14 13:02:05;;;;;;;5.28;1.00;;;23.20;90.70;;;;;;5005086;28;20137;-93
2022/07/14 13:04:34;;;;;;;4.50;1.30;;;23.30;91.00;;;;;;4990614;28;20281;-91
2022/07/14 13:07:22;;;;;;;3.50;0.80;;;23.20;92.80;;;;;;5021605;28;20042;-92
2022/07/14 13:10:12;;;;;;;2.42;0.73;;;23.10;90.70;;;;;;4977830;28;20421;-93
2022/07/14 13:12:50;;;;;;;;;;;23.10;91.20;;;;;;4986895;28;20137;-93